sensor_id;sensor_type;location;lat;lon;timestamp;P1;durP1;ratioP1;P2;durP2;ratioP2
33413;SDS011;60055;41.884;12.534;2024-01-16T00:00:45;36.88;;;23.33;;
33413;SDS011;60055;41.884;12.534;2024-01-16T00:03:11;39.35;;;22.98;;
33413;SDS011;60055;41.884;12.534;2024-01-16T00:05:37;39.90;;;23.15;;
33413;SDS011;60055;41.884;12.534;2024-01-16T00:08:02;38.97;;;23.05;;
33413;SDS011;60055;41.884;12.534;2024-01-16T00:10:28;38.38;;;24.33;;
33413;SDS011;60055;41.884;12.534;2024-01-16T00:12:53;39.50;;;24.23;;
33413;SDS011;60055;41.884;12.534;2024-01-16T00:15:19;37.63;;;23.58;;
33413;SDS011;60055;41.884;12.534;2024-01-16T00:17:44;37.63;;;24.00;;
33413;SDS011;60055;41.884;12.534;2024-01-16T00:20:10;38.33;;;24.05;;
33413;SDS011;60055;41.884;12.534;2024-01-16T00:22:36;37.28;;;22.58;;
33413;SDS011;60055;41.884;12.534;2024-01-16T00:25:01;36.33;;;23.05;;
33413;SDS011;60055;41.884;12.534;2024-01-16T00:27:27;38.70;;;23.08;;
33413;SDS011;60055;41.884;12.534;2024-01-16T00:29:52;39.28;;;23.80;;
33413;SDS011;60055;41.884;12.534;2024-01-16T00:32:17;39.15;;;23.60;;
33413;SDS011;60055;41.884;12.534;2024-01-16T00:34:43;41.10;;;24.23;;
33413;SDS011;60055;41.884;12.534;2024-01-16T00:37:08;38.58;;;23.83;;
33413;SDS011;60055;41.884;12.534;2024-01-16T00:39:34;39.33;;;23.40;;
33413;SDS011;60055;41.884;12.534;2024-01-16T00:41:59;36.13;;;22.13;;
33413;SDS011;60055;41.884;12.534;2024-01-16T00:44:25;33.67;;;22.63;;
33413;SDS011;60055;41.884;12.534;2024-01-16T00:46:50;32.78;;;22.23;;
33413;SDS011;60055;41.884;12.534;2024-01-16T00:49:15;36.17;;;22.58;;
33413;SDS011;60055;41.884;12.534;2024-01-16T00:51:41;41.30;;;23.65;;
33413;SDS011;60055;41.884;12.534;2024-01-16T00:54:06;40.80;;;23.23;;
33413;SDS011;60055;41.884;12.534;2024-01-16T00:56:33;37.05;;;23.77;;
33413;SDS011;60055;41.884;12.534;2024-01-16T00:59:00;36.78;;;22.65;;
33413;SDS011;60055;41.884;12.534;2024-01-16T01:01:26;35.72;;;22.48;;
33413;SDS011;60055;41.884;12.534;2024-01-16T01:03:51;33.40;;;22.23;;
33413;SDS011;60055;41.884;12.534;2024-01-16T01:06:17;37.05;;;22.63;;
33413;SDS011;60055;41.884;12.534;2024-01-16T01:08:42;39.78;;;23.15;;
33413;SDS011;60055;41.884;12.534;2024-01-16T01:11:08;34.20;;;22.70;;
33413;SDS011;60055;41.884;12.534;2024-01-16T01:13:33;33.95;;;22.27;;
33413;SDS011;60055;41.884;12.534;2024-01-16T01:15:59;35.97;;;22.58;;
33413;SDS011;60055;41.884;12.534;2024-01-16T01:18:25;35.60;;;22.95;;
33413;SDS011;60055;41.884;12.534;2024-01-16T01:20:50;37.15;;;23.35;;
33413;SDS011;60055;41.884;12.534;2024-01-16T01:23:16;36.40;;;23.13;;
33413;SDS011;60055;41.884;12.534;2024-01-16T01:25:41;39.90;;;22.05;;
33413;SDS011;60055;41.884;12.534;2024-01-16T01:28:07;35.33;;;23.42;;
33413;SDS011;60055;41.884;12.534;2024-01-16T01:30:33;41.72;;;23.60;;
33413;SDS011;60055;41.884;12.534;2024-01-16T01:32:58;36.33;;;21.92;;
33413;SDS011;60055;41.884;12.534;2024-01-16T01:35:24;36.53;;;23.02;;
33413;SDS011;60055;41.884;12.534;2024-01-16T01:37:49;37.15;;;21.77;;
33413;SDS011;60055;41.884;12.534;2024-01-16T01:40:15;36.97;;;22.17;;
33413;SDS011;60055;41.884;12.534;2024-01-16T01:42:43;31.88;;;21.67;;
33413;SDS011;60055;41.884;12.534;2024-01-16T01:45:09;34.80;;;21.52;;
33413;SDS011;60055;41.884;12.534;2024-01-16T01:47:36;33.13;;;21.75;;
33413;SDS011;60055;41.884;12.534;2024-01-16T01:50:05;33.58;;;20.98;;
33413;SDS011;60055;41.884;12.534;2024-01-16T01:52:32;34.08;;;21.45;;
33413;SDS011;60055;41.884;12.534;2024-01-16T01:54:58;39.45;;;21.48;;
33413;SDS011;60055;41.884;12.534;2024-01-16T01:57:24;34.28;;;20.23;;
33413;SDS011;60055;41.884;12.534;2024-01-16T01:59:50;29.55;;;19.48;;
33413;SDS011;60055;41.884;12.534;2024-01-16T02:02:15;35.38;;;20.25;;
33413;SDS011;60055;41.884;12.534;2024-01-16T02:04:42;31.98;;;20.00;;
33413;SDS011;60055;41.884;12.534;2024-01-16T02:07:09;32.15;;;19.73;;
33413;SDS011;60055;41.884;12.534;2024-01-16T02:09:35;35.10;;;20.33;;
33413;SDS011;60055;41.884;12.534;2024-01-16T02:12:01;33.30;;;19.38;;
33413;SDS011;60055;41.884;12.534;2024-01-16T02:14:26;28.02;;;18.33;;
33413;SDS011;60055;41.884;12.534;2024-01-16T02:16:52;29.98;;;17.95;;
33413;SDS011;60055;41.884;12.534;2024-01-16T02:19:18;28.15;;;16.92;;
33413;SDS011;60055;41.884;12.534;2024-01-16T02:21:45;29.58;;;17.30;;
33413;SDS011;60055;41.884;12.534;2024-01-16T02:24:13;29.17;;;17.02;;
33413;SDS011;60055;41.884;12.534;2024-01-16T02:26:40;26.63;;;17.08;;
33413;SDS011;60055;41.884;12.534;2024-01-16T02:29:06;30.60;;;17.33;;
33413;SDS011;60055;41.884;12.534;2024-01-16T02:31:31;31.42;;;18.20;;
33413;SDS011;60055;41.884;12.534;2024-01-16T02:33:57;28.52;;;17.05;;
33413;SDS011;60055;41.884;12.534;2024-01-16T02:36:23;26.38;;;16.73;;
33413;SDS011;60055;41.884;12.534;2024-01-16T02:38:49;27.02;;;16.77;;
33413;SDS011;60055;41.884;12.534;2024-01-16T02:41:15;27.20;;;17.17;;
33413;SDS011;60055;41.884;12.534;2024-01-16T02:43:44;27.80;;;16.92;;
33413;SDS011;60055;41.884;12.534;2024-01-16T02:46:10;26.27;;;16.02;;
33413;SDS011;60055;41.884;12.534;2024-01-16T02:48:35;29.33;;;16.33;;
33413;SDS011;60055;41.884;12.534;2024-01-16T02:51:02;29.73;;;15.93;;
33413;SDS011;60055;41.884;12.534;2024-01-16T02:53:28;25.83;;;15.23;;
33413;SDS011;60055;41.884;12.534;2024-01-16T02:55:54;29.17;;;16.05;;
33413;SDS011;60055;41.884;12.534;2024-01-16T02:58:20;22.50;;;15.05;;
33413;SDS011;60055;41.884;12.534;2024-01-16T03:00:48;23.33;;;14.27;;
33413;SDS011;60055;41.884;12.534;2024-01-16T03:03:14;23.50;;;15.00;;
33413;SDS011;60055;41.884;12.534;2024-01-16T03:05:40;26.58;;;14.65;;
33413;SDS011;60055;41.884;12.534;2024-01-16T03:08:06;23.27;;;13.90;;
33413;SDS011;60055;41.884;12.534;2024-01-16T03:10:32;22.65;;;14.13;;
33413;SDS011;60055;41.884;12.534;2024-01-16T03:12:57;25.00;;;14.45;;
33413;SDS011;60055;41.884;12.534;2024-01-16T03:15:23;23.00;;;14.15;;
33413;SDS011;60055;41.884;12.534;2024-01-16T03:17:48;23.60;;;13.93;;
33413;SDS011;60055;41.884;12.534;2024-01-16T03:20:14;22.88;;;13.32;;
33413;SDS011;60055;41.884;12.534;2024-01-16T03:22:40;23.73;;;13.57;;
33413;SDS011;60055;41.884;12.534;2024-01-16T03:25:08;26.77;;;14.15;;
33413;SDS011;60055;41.884;12.534;2024-01-16T03:27:34;22.15;;;13.43;;
33413;SDS011;60055;41.884;12.534;2024-01-16T03:30:00;23.73;;;13.60;;
33413;SDS011;60055;41.884;12.534;2024-01-16T03:32:27;21.50;;;12.43;;
33413;SDS011;60055;41.884;12.534;2024-01-16T03:34:52;20.40;;;12.82;;
33413;SDS011;60055;41.884;12.534;2024-01-16T03:37:17;18.52;;;12.32;;
33413;SDS011;60055;41.884;12.534;2024-01-16T03:39:43;20.75;;;11.90;;
33413;SDS011;60055;41.884;12.534;2024-01-16T03:42:10;22.02;;;12.80;;
33413;SDS011;60055;41.884;12.534;2024-01-16T03:44:40;20.27;;;11.93;;
33413;SDS011;60055;41.884;12.534;2024-01-16T03:47:06;25.17;;;12.90;;
33413;SDS011;60055;41.884;12.534;2024-01-16T03:49:32;20.80;;;12.55;;
33413;SDS011;60055;41.884;12.534;2024-01-16T03:51:58;20.27;;;11.23;;
33413;SDS011;60055;41.884;12.534;2024-01-16T03:54:24;19.58;;;11.10;;
33413;SDS011;60055;41.884;12.534;2024-01-16T03:56:49;21.50;;;11.32;;
33413;SDS011;60055;41.884;12.534;2024-01-16T03:59:15;20.40;;;11.40;;
33413;SDS011;60055;41.884;12.534;2024-01-16T04:01:41;22.77;;;12.65;;
33413;SDS011;60055;41.884;12.534;2024-01-16T04:04:09;23.33;;;12.55;;
33413;SDS011;60055;41.884;12.534;2024-01-16T04:06:38;18.20;;;11.07;;
33413;SDS011;60055;41.884;12.534;2024-01-16T04:09:04;20.33;;;11.13;;
33413;SDS011;60055;41.884;12.534;2024-01-16T04:11:30;20.98;;;11.32;;
33413;SDS011;60055;41.884;12.534;2024-01-16T04:13:55;21.52;;;11.68;;
33413;SDS011;60055;41.884;12.534;2024-01-16T04:16:21;22.95;;;11.75;;
33413;SDS011;60055;41.884;12.534;2024-01-16T04:18:47;25.38;;;10.90;;
33413;SDS011;60055;41.884;12.534;2024-01-16T04:21:13;26.90;;;11.32;;
33413;SDS011;60055;41.884;12.534;2024-01-16T04:23:38;21.48;;;11.40;;
33413;SDS011;60055;41.884;12.534;2024-01-16T04:26:04;20.20;;;10.93;;
33413;SDS011;60055;41.884;12.534;2024-01-16T04:28:30;20.50;;;12.07;;
33413;SDS011;60055;41.884;12.534;2024-01-16T04:30:55;20.48;;;11.10;;
33413;SDS011;60055;41.884;12.534;2024-01-16T04:33:21;21.40;;;10.70;;
33413;SDS011;60055;41.884;12.534;2024-01-16T04:35:46;19.67;;;11.02;;
33413;SDS011;60055;41.884;12.534;2024-01-16T04:38:12;21.20;;;10.32;;
33413;SDS011;60055;41.884;12.534;2024-01-16T04:40:37;21.58;;;10.43;;
33413;SDS011;60055;41.884;12.534;2024-01-16T04:43:03;17.92;;;10.07;;
33413;SDS011;60055;41.884;12.534;2024-01-16T04:45:28;19.25;;;9.90;;
33413;SDS011;60055;41.884;12.534;2024-01-16T04:47:54;20.80;;;10.50;;
33413;SDS011;60055;41.884;12.534;2024-01-16T04:50:19;17.60;;;9.82;;
33413;SDS011;60055;41.884;12.534;2024-01-16T04:52:44;19.85;;;9.38;;
33413;SDS011;60055;41.884;12.534;2024-01-16T04:55:10;19.02;;;9.27;;
33413;SDS011;60055;41.884;12.534;2024-01-16T04:57:36;19.73;;;9.40;;
33413;SDS011;60055;41.884;12.534;2024-01-16T05:00:01;18.02;;;8.52;;
33413;SDS011;60055;41.884;12.534;2024-01-16T05:02:31;16.65;;;8.80;;
33413;SDS011;60055;41.884;12.534;2024-01-16T05:04:57;16.63;;;8.48;;
33413;SDS011;60055;41.884;12.534;2024-01-16T05:07:23;18.45;;;8.75;;
33413;SDS011;60055;41.884;12.534;2024-01-16T05:09:49;19.45;;;8.50;;
33413;SDS011;60055;41.884;12.534;2024-01-16T05:12:14;18.17;;;8.57;;
33413;SDS011;60055;41.884;12.534;2024-01-16T05:14:40;20.33;;;7.93;;
33413;SDS011;60055;41.884;12.534;2024-01-16T05:17:05;19.15;;;7.95;;
33413;SDS011;60055;41.884;12.534;2024-01-16T05:19:31;15.25;;;7.50;;
33413;SDS011;60055;41.884;12.534;2024-01-16T05:21:57;21.48;;;8.20;;
33413;SDS011;60055;41.884;12.534;2024-01-16T05:24:22;20.10;;;9.15;;
33413;SDS011;60055;41.884;12.534;2024-01-16T05:26:48;20.52;;;8.95;;
33413;SDS011;60055;41.884;12.534;2024-01-16T05:29:13;18.15;;;8.73;;
33413;SDS011;60055;41.884;12.534;2024-01-16T05:31:39;17.10;;;9.10;;
33413;SDS011;60055;41.884;12.534;2024-01-16T05:34:08;18.60;;;9.10;;
33413;SDS011;60055;41.884;12.534;2024-01-16T05:36:34;21.55;;;9.13;;
33413;SDS011;60055;41.884;12.534;2024-01-16T05:38:59;20.95;;;9.48;;
33413;SDS011;60055;41.884;12.534;2024-01-16T05:41:24;19.90;;;8.80;;
33413;SDS011;60055;41.884;12.534;2024-01-16T05:43:50;14.63;;;8.63;;
33413;SDS011;60055;41.884;12.534;2024-01-16T05:46:15;18.55;;;10.00;;
33413;SDS011;60055;41.884;12.534;2024-01-16T05:48:41;18.58;;;9.20;;
33413;SDS011;60055;41.884;12.534;2024-01-16T05:51:06;21.40;;;8.90;;
33413;SDS011;60055;41.884;12.534;2024-01-16T05:53:32;17.05;;;8.88;;
33413;SDS011;60055;41.884;12.534;2024-01-16T05:55:57;17.65;;;8.82;;
33413;SDS011;60055;41.884;12.534;2024-01-16T05:58:22;19.20;;;9.02;;
33413;SDS011;60055;41.884;12.534;2024-01-16T06:00:48;18.80;;;8.50;;
33413;SDS011;60055;41.884;12.534;2024-01-16T06:03:13;17.80;;;8.68;;
33413;SDS011;60055;41.884;12.534;2024-01-16T06:05:39;20.38;;;8.85;;
33413;SDS011;60055;41.884;12.534;2024-01-16T06:08:04;18.88;;;9.02;;
33413;SDS011;60055;41.884;12.534;2024-01-16T06:10:31;18.48;;;8.50;;
33413;SDS011;60055;41.884;12.534;2024-01-16T06:12:57;19.98;;;9.13;;
33413;SDS011;60055;41.884;12.534;2024-01-16T06:15:22;27.42;;;8.73;;
33413;SDS011;60055;41.884;12.534;2024-01-16T06:17:48;31.33;;;10.00;;
33413;SDS011;60055;41.884;12.534;2024-01-16T06:20:13;22.80;;;9.60;;
33413;SDS011;60055;41.884;12.534;2024-01-16T06:22:39;18.27;;;8.30;;
33413;SDS011;60055;41.884;12.534;2024-01-16T06:25:05;18.90;;;8.75;;
33413;SDS011;60055;41.884;12.534;2024-01-16T06:27:31;21.85;;;8.98;;
33413;SDS011;60055;41.884;12.534;2024-01-16T06:29:56;21.98;;;9.20;;
33413;SDS011;60055;41.884;12.534;2024-01-16T06:32:22;17.88;;;9.40;;
33413;SDS011;60055;41.884;12.534;2024-01-16T06:34:47;22.55;;;9.13;;
33413;SDS011;60055;41.884;12.534;2024-01-16T06:37:13;21.25;;;9.48;;
33413;SDS011;60055;41.884;12.534;2024-01-16T06:39:39;17.35;;;9.25;;
33413;SDS011;60055;41.884;12.534;2024-01-16T06:42:04;23.80;;;8.82;;
33413;SDS011;60055;41.884;12.534;2024-01-16T06:44:31;20.45;;;9.65;;
33413;SDS011;60055;41.884;12.534;2024-01-16T06:46:56;23.42;;;9.18;;
33413;SDS011;60055;41.884;12.534;2024-01-16T06:49:21;24.35;;;9.40;;
33413;SDS011;60055;41.884;12.534;2024-01-16T06:51:47;20.40;;;9.13;;
33413;SDS011;60055;41.884;12.534;2024-01-16T06:54:12;18.58;;;8.75;;
33413;SDS011;60055;41.884;12.534;2024-01-16T06:56:38;24.52;;;9.95;;
33413;SDS011;60055;41.884;12.534;2024-01-16T06:59:03;19.67;;;9.65;;
33413;SDS011;60055;41.884;12.534;2024-01-16T07:01:29;21.00;;;9.00;;
33413;SDS011;60055;41.884;12.534;2024-01-16T07:03:55;19.88;;;10.00;;
33413;SDS011;60055;41.884;12.534;2024-01-16T07:06:21;26.50;;;10.20;;
33413;SDS011;60055;41.884;12.534;2024-01-16T07:08:46;19.08;;;10.20;;
33413;SDS011;60055;41.884;12.534;2024-01-16T07:11:11;23.05;;;10.00;;
33413;SDS011;60055;41.884;12.534;2024-01-16T07:13:39;23.80;;;9.85;;
33413;SDS011;60055;41.884;12.534;2024-01-16T07:16:06;20.35;;;9.43;;
33413;SDS011;60055;41.884;12.534;2024-01-16T07:18:34;17.23;;;9.23;;
33413;SDS011;60055;41.884;12.534;2024-01-16T07:20:59;19.70;;;9.40;;
33413;SDS011;60055;41.884;12.534;2024-01-16T07:23:25;23.55;;;9.48;;
33413;SDS011;60055;41.884;12.534;2024-01-16T07:25:50;21.38;;;9.80;;
33413;SDS011;60055;41.884;12.534;2024-01-16T07:28:16;19.15;;;9.13;;
33413;SDS011;60055;41.884;12.534;2024-01-16T07:30:41;25.20;;;9.75;;
33413;SDS011;60055;41.884;12.534;2024-01-16T07:33:06;27.17;;;9.68;;
33413;SDS011;60055;41.884;12.534;2024-01-16T07:35:32;22.08;;;9.52;;
33413;SDS011;60055;41.884;12.534;2024-01-16T07:37:58;21.77;;;9.70;;
33413;SDS011;60055;41.884;12.534;2024-01-16T07:40:23;20.70;;;9.70;;
33413;SDS011;60055;41.884;12.534;2024-01-16T07:42:49;20.35;;;10.02;;
33413;SDS011;60055;41.884;12.534;2024-01-16T07:45:14;20.30;;;10.05;;
33413;SDS011;60055;41.884;12.534;2024-01-16T07:47:40;22.50;;;9.88;;
33413;SDS011;60055;41.884;12.534;2024-01-16T07:50:06;22.70;;;9.20;;
33413;SDS011;60055;41.884;12.534;2024-01-16T07:52:32;21.10;;;9.95;;
33413;SDS011;60055;41.884;12.534;2024-01-16T07:54:57;24.20;;;9.32;;
33413;SDS011;60055;41.884;12.534;2024-01-16T07:57:23;26.10;;;9.93;;
33413;SDS011;60055;41.884;12.534;2024-01-16T07:59:48;23.92;;;10.02;;
33413;SDS011;60055;41.884;12.534;2024-01-16T08:02:13;24.50;;;10.00;;
33413;SDS011;60055;41.884;12.534;2024-01-16T08:04:39;25.17;;;9.90;;
33413;SDS011;60055;41.884;12.534;2024-01-16T08:07:04;28.33;;;10.50;;
33413;SDS011;60055;41.884;12.534;2024-01-16T08:09:30;20.13;;;9.50;;
33413;SDS011;60055;41.884;12.534;2024-01-16T08:11:55;22.42;;;10.15;;
33413;SDS011;60055;41.884;12.534;2024-01-16T08:14:20;23.48;;;9.40;;
33413;SDS011;60055;41.884;12.534;2024-01-16T08:16:46;25.75;;;9.88;;
33413;SDS011;60055;41.884;12.534;2024-01-16T08:19:11;27.42;;;10.30;;
33413;SDS011;60055;41.884;12.534;2024-01-16T08:21:38;27.52;;;10.32;;
33413;SDS011;60055;41.884;12.534;2024-01-16T08:24:03;22.25;;;10.30;;
33413;SDS011;60055;41.884;12.534;2024-01-16T08:26:29;28.10;;;10.00;;
33413;SDS011;60055;41.884;12.534;2024-01-16T08:28:54;23.42;;;9.52;;
33413;SDS011;60055;41.884;12.534;2024-01-16T08:31:20;24.23;;;10.07;;
33413;SDS011;60055;41.884;12.534;2024-01-16T08:33:45;28.20;;;11.20;;
33413;SDS011;60055;41.884;12.534;2024-01-16T08:36:11;27.85;;;9.95;;
33413;SDS011;60055;41.884;12.534;2024-01-16T08:38:36;30.45;;;9.50;;
33413;SDS011;60055;41.884;12.534;2024-01-16T08:41:02;25.90;;;9.80;;
33413;SDS011;60055;41.884;12.534;2024-01-16T08:43:31;23.23;;;8.93;;
33413;SDS011;60055;41.884;12.534;2024-01-16T08:45:57;22.38;;;9.00;;
33413;SDS011;60055;41.884;12.534;2024-01-16T08:48:22;18.92;;;8.73;;
33413;SDS011;60055;41.884;12.534;2024-01-16T08:50:48;20.10;;;8.43;;
33413;SDS011;60055;41.884;12.534;2024-01-16T08:53:13;19.95;;;7.88;;
33413;SDS011;60055;41.884;12.534;2024-01-16T08:55:38;24.50;;;8.05;;
33413;SDS011;60055;41.884;12.534;2024-01-16T08:58:04;21.70;;;8.10;;
33413;SDS011;60055;41.884;12.534;2024-01-16T09:00:29;24.42;;;8.48;;
33413;SDS011;60055;41.884;12.534;2024-01-16T09:02:55;22.85;;;8.10;;
33413;SDS011;60055;41.884;12.534;2024-01-16T09:05:20;19.45;;;7.80;;
33413;SDS011;60055;41.884;12.534;2024-01-16T09:07:50;21.92;;;8.32;;
33413;SDS011;60055;41.884;12.534;2024-01-16T09:10:16;20.80;;;8.02;;
33413;SDS011;60055;41.884;12.534;2024-01-16T09:12:42;19.80;;;8.05;;
33413;SDS011;60055;41.884;12.534;2024-01-16T09:15:07;25.60;;;7.97;;
33413;SDS011;60055;41.884;12.534;2024-01-16T09:17:33;23.92;;;8.13;;
33413;SDS011;60055;41.884;12.534;2024-01-16T09:19:59;17.38;;;8.35;;
33413;SDS011;60055;41.884;12.534;2024-01-16T09:22:24;20.73;;;8.07;;
33413;SDS011;60055;41.884;12.534;2024-01-16T09:24:50;18.33;;;8.13;;
33413;SDS011;60055;41.884;12.534;2024-01-16T09:27:15;22.02;;;9.30;;
33413;SDS011;60055;41.884;12.534;2024-01-16T09:29:41;24.50;;;9.43;;
33413;SDS011;60055;41.884;12.534;2024-01-16T09:32:07;25.92;;;8.75;;
33413;SDS011;60055;41.884;12.534;2024-01-16T09:34:32;22.90;;;8.88;;
33413;SDS011;60055;41.884;12.534;2024-01-16T09:36:58;23.30;;;8.85;;
33413;SDS011;60055;41.884;12.534;2024-01-16T09:39:26;22.48;;;8.98;;
33413;SDS011;60055;41.884;12.534;2024-01-16T09:41:51;23.75;;;8.65;;
33413;SDS011;60055;41.884;12.534;2024-01-16T09:44:17;18.17;;;8.25;;
33413;SDS011;60055;41.884;12.534;2024-01-16T09:46:43;24.10;;;8.63;;
33413;SDS011;60055;41.884;12.534;2024-01-16T09:49:11;22.80;;;8.82;;
33413;SDS011;60055;41.884;12.534;2024-01-16T09:51:39;18.38;;;8.43;;
33413;SDS011;60055;41.884;12.534;2024-01-16T09:54:05;19.35;;;8.18;;
33413;SDS011;60055;41.884;12.534;2024-01-16T09:56:34;21.67;;;8.77;;
33413;SDS011;60055;41.884;12.534;2024-01-16T09:59:05;21.70;;;8.30;;
33413;SDS011;60055;41.884;12.534;2024-01-16T10:01:33;24.02;;;9.07;;
33413;SDS011;60055;41.884;12.534;2024-01-16T10:04:00;22.17;;;8.57;;
33413;SDS011;60055;41.884;12.534;2024-01-16T10:06:28;27.20;;;8.80;;
33413;SDS011;60055;41.884;12.534;2024-01-16T10:08:56;20.75;;;8.38;;
33413;SDS011;60055;41.884;12.534;2024-01-16T10:11:22;24.77;;;8.90;;
33413;SDS011;60055;41.884;12.534;2024-01-16T10:13:47;28.52;;;8.48;;
33413;SDS011;60055;41.884;12.534;2024-01-16T10:16:13;24.83;;;8.68;;
33413;SDS011;60055;41.884;12.534;2024-01-16T10:18:38;26.75;;;8.68;;
33413;SDS011;60055;41.884;12.534;2024-01-16T10:21:04;27.98;;;8.85;;
33413;SDS011;60055;41.884;12.534;2024-01-16T10:23:30;20.63;;;8.27;;
33413;SDS011;60055;41.884;12.534;2024-01-16T10:26:07;25.75;;;8.70;;
33413;SDS011;60055;41.884;12.534;2024-01-16T10:28:34;29.02;;;8.15;;
33413;SDS011;60055;41.884;12.534;2024-01-16T10:31:06;30.48;;;8.57;;
33413;SDS011;60055;41.884;12.534;2024-01-16T10:33:36;21.70;;;7.97;;
33413;SDS011;60055;41.884;12.534;2024-01-16T10:36:07;26.75;;;8.35;;
33413;SDS011;60055;41.884;12.534;2024-01-16T10:38:37;23.85;;;8.10;;
33413;SDS011;60055;41.884;12.534;2024-01-16T10:41:05;21.02;;;7.75;;
33413;SDS011;60055;41.884;12.534;2024-01-16T10:43:31;26.17;;;8.15;;
33413;SDS011;60055;41.884;12.534;2024-01-16T10:46:07;26.55;;;8.43;;
33413;SDS011;60055;41.884;12.534;2024-01-16T10:48:34;25.75;;;8.40;;
33413;SDS011;60055;41.884;12.534;2024-01-16T10:50:59;27.13;;;9.00;;
33413;SDS011;60055;41.884;12.534;2024-01-16T10:53:26;30.08;;;8.70;;
33413;SDS011;60055;41.884;12.534;2024-01-16T10:55:57;29.20;;;8.70;;
33413;SDS011;60055;41.884;12.534;2024-01-16T10:58:25;28.77;;;8.95;;
33413;SDS011;60055;41.884;12.534;2024-01-16T11:00:54;29.77;;;7.93;;
33413;SDS011;60055;41.884;12.534;2024-01-16T11:03:24;31.27;;;6.50;;
33413;SDS011;60055;41.884;12.534;2024-01-16T11:05:54;30.50;;;5.90;;
33413;SDS011;60055;41.884;12.534;2024-01-16T11:08:23;27.48;;;6.35;;
33413;SDS011;60055;41.884;12.534;2024-01-16T11:10:54;28.50;;;5.38;;
33413;SDS011;60055;41.884;12.534;2024-01-16T11:13:20;29.15;;;5.10;;
33413;SDS011;60055;41.884;12.534;2024-01-16T11:15:46;26.48;;;4.90;;
33413;SDS011;60055;41.884;12.534;2024-01-16T11:18:14;21.00;;;4.50;;
33413;SDS011;60055;41.884;12.534;2024-01-16T11:20:41;30.17;;;4.97;;
33413;SDS011;60055;41.884;12.534;2024-01-16T11:23:08;26.90;;;4.75;;
33413;SDS011;60055;41.884;12.534;2024-01-16T11:25:35;24.65;;;4.60;;
33413;SDS011;60055;41.884;12.534;2024-01-16T11:28:10;21.88;;;4.40;;
33413;SDS011;60055;41.884;12.534;2024-01-16T11:30:39;21.77;;;4.00;;
33413;SDS011;60055;41.884;12.534;2024-01-16T11:33:05;20.92;;;4.13;;
33413;SDS011;60055;41.884;12.534;2024-01-16T11:35:37;24.30;;;4.75;;
33413;SDS011;60055;41.884;12.534;2024-01-16T11:38:06;23.10;;;4.33;;
33413;SDS011;60055;41.884;12.534;2024-01-16T11:40:34;25.60;;;4.68;;
33413;SDS011;60055;41.884;12.534;2024-01-16T11:45:56;26.75;;;4.82;;
33413;SDS011;60055;41.884;12.534;2024-01-16T11:48:23;25.17;;;4.47;;
33413;SDS011;60055;41.884;12.534;2024-01-16T11:50:50;25.13;;;4.53;;
33413;SDS011;60055;41.884;12.534;2024-01-16T11:53:31;24.75;;;4.93;;
33413;SDS011;60055;41.884;12.534;2024-01-16T11:59:40;25.83;;;4.80;;
33413;SDS011;60055;41.884;12.534;2024-01-16T12:02:21;24.05;;;4.28;;
33413;SDS011;60055;41.884;12.534;2024-01-16T12:04:54;19.48;;;4.35;;
33413;SDS011;60055;41.884;12.534;2024-01-16T12:07:21;27.58;;;4.40;;
33413;SDS011;60055;41.884;12.534;2024-01-16T12:10:06;25.25;;;4.38;;
33413;SDS011;60055;41.884;12.534;2024-01-16T12:12:42;25.00;;;4.20;;
33413;SDS011;60055;41.884;12.534;2024-01-16T12:18:49;28.05;;;4.57;;
33413;SDS011;60055;41.884;12.534;2024-01-16T12:21:39;23.92;;;4.93;;
33413;SDS011;60055;41.884;12.534;2024-01-16T12:24:29;27.75;;;4.13;;
33413;SDS011;60055;41.884;12.534;2024-01-16T12:26:58;24.88;;;4.88;;
33413;SDS011;60055;41.884;12.534;2024-01-16T12:39:34;23.98;;;4.50;;
33413;SDS011;60055;41.884;12.534;2024-01-16T12:42:03;19.58;;;3.67;;
33413;SDS011;60055;41.884;12.534;2024-01-16T12:44:34;23.15;;;3.83;;
33413;SDS011;60055;41.884;12.534;2024-01-16T12:47:03;22.77;;;4.32;;
33413;SDS011;60055;41.884;12.534;2024-01-16T12:50:18;27.77;;;4.80;;
33413;SDS011;60055;41.884;12.534;2024-01-16T13:02:48;21.60;;;4.25;;
33413;SDS011;60055;41.884;12.534;2024-01-16T13:05:15;29.80;;;5.00;;
33413;SDS011;60055;41.884;12.534;2024-01-16T13:07:45;25.40;;;4.43;;
33413;SDS011;60055;41.884;12.534;2024-01-16T13:10:11;21.25;;;4.22;;
33413;SDS011;60055;41.884;12.534;2024-01-16T13:13:31;26.17;;;4.80;;
33413;SDS011;60055;41.884;12.534;2024-01-16T13:16:03;24.35;;;4.97;;
33413;SDS011;60055;41.884;12.534;2024-01-16T13:18:35;30.27;;;5.15;;
33413;SDS011;60055;41.884;12.534;2024-01-16T13:21:31;28.92;;;4.55;;
33413;SDS011;60055;41.884;12.534;2024-01-16T13:30:56;37.05;;;8.57;;
33413;SDS011;60055;41.884;12.534;2024-01-16T13:50:22;23.70;;;4.68;;
33413;SDS011;60055;41.884;12.534;2024-01-16T13:52:49;24.40;;;4.78;;
33413;SDS011;60055;41.884;12.534;2024-01-16T14:18:18;19.35;;;4.18;;
33413;SDS011;60055;41.884;12.534;2024-01-16T14:20:50;24.17;;;4.25;;
33413;SDS011;60055;41.884;12.534;2024-01-16T14:23:42;20.45;;;3.55;;
33413;SDS011;60055;41.884;12.534;2024-01-16T14:29:03;19.85;;;4.20;;
33413;SDS011;60055;41.884;12.534;2024-01-16T14:31:31;22.85;;;4.80;;
33413;SDS011;60055;41.884;12.534;2024-01-16T14:33:56;23.65;;;4.32;;
33413;SDS011;60055;41.884;12.534;2024-01-16T14:36:22;26.55;;;4.25;;
33413;SDS011;60055;41.884;12.534;2024-01-16T14:39:12;18.42;;;3.65;;
33413;SDS011;60055;41.884;12.534;2024-01-16T14:41:47;25.95;;;4.55;;
33413;SDS011;60055;41.884;12.534;2024-01-16T14:44:20;29.23;;;4.20;;
33413;SDS011;60055;41.884;12.534;2024-01-16T14:47:19;20.88;;;3.65;;
33413;SDS011;60055;41.884;12.534;2024-01-16T14:50:00;21.30;;;4.03;;
33413;SDS011;60055;41.884;12.534;2024-01-16T14:52:26;27.08;;;4.13;;
33413;SDS011;60055;41.884;12.534;2024-01-16T14:54:51;29.73;;;4.50;;
33413;SDS011;60055;41.884;12.534;2024-01-16T14:57:18;28.17;;;5.50;;
33413;SDS011;60055;41.884;12.534;2024-01-16T14:59:43;29.08;;;4.28;;
33413;SDS011;60055;41.884;12.534;2024-01-16T15:02:15;23.38;;;4.25;;
33413;SDS011;60055;41.884;12.534;2024-01-16T15:14:41;29.77;;;4.22;;
33413;SDS011;60055;41.884;12.534;2024-01-16T15:17:29;33.38;;;4.68;;
33413;SDS011;60055;41.884;12.534;2024-01-16T15:19:58;23.02;;;4.50;;
33413;SDS011;60055;41.884;12.534;2024-01-16T15:22:54;26.13;;;4.85;;
33413;SDS011;60055;41.884;12.534;2024-01-16T15:25:31;24.83;;;4.10;;
33413;SDS011;60055;41.884;12.534;2024-01-16T15:32:29;24.27;;;4.10;;
33413;SDS011;60055;41.884;12.534;2024-01-16T15:35:20;25.33;;;4.07;;
33413;SDS011;60055;41.884;12.534;2024-01-16T15:37:47;24.45;;;3.83;;
33413;SDS011;60055;41.884;12.534;2024-01-16T15:40:16;29.52;;;5.20;;
33413;SDS011;60055;41.884;12.534;2024-01-16T15:42:41;29.40;;;3.97;;
33413;SDS011;60055;41.884;12.534;2024-01-16T15:45:07;31.70;;;4.60;;
33413;SDS011;60055;41.884;12.534;2024-01-16T15:47:34;24.90;;;4.82;;
33413;SDS011;60055;41.884;12.534;2024-01-16T15:50:00;32.03;;;5.07;;
33413;SDS011;60055;41.884;12.534;2024-01-16T15:52:26;35.95;;;4.55;;